sensor_id;sensor_type;location;lat;lon;timestamp;pressure;altitude;pressure_sealevel;temperature;humidity
62946;BME280;52164;52.212;-1.010;2022-07-09T00:01:24;102203.59;;;17.07;62.37
62946;BME280;52164;52.212;-1.010;2022-07-09T00:03:49;102202.31;;;17.04;62.39
62946;BME280;52164;52.212;-1.010;2022-07-09T00:06:17;102203.95;;;17.03;62.72
62946;BME280;52164;52.212;-1.010;2022-07-09T00:08:42;102206.83;;;16.99;62.73
62946;BME280;52164;52.212;-1.010;2022-07-09T00:11:08;102203.40;;;16.94;62.98
62946;BME280;52164;52.212;-1.010;2022-07-09T00:13:33;102204.11;;;16.91;63.22
62946;BME280;52164;52.212;-1.010;2022-07-09T00:15:59;102204.84;;;16.89;63.36
62946;BME280;52164;52.212;-1.010;2022-07-09T00:18:25;102205.34;;;16.84;63.54
62946;BME280;52164;52.212;-1.010;2022-07-09T00:20:50;102202.09;;;16.81;63.75
62946;BME280;52164;52.212;-1.010;2022-07-09T00:23:15;102200.81;;;16.76;64.03
62946;BME280;52164;52.212;-1.010;2022-07-09T00:25:41;102200.47;;;16.73;64.18
62946;BME280;52164;52.212;-1.010;2022-07-09T00:28:06;102197.58;;;16.72;64.29
62946;BME280;52164;52.212;-1.010;2022-07-09T00:30:32;102197.92;;;16.72;64.54
62946;BME280;52164;52.212;-1.010;2022-07-09T00:32:58;102200.45;;;16.74;64.60
62946;BME280;52164;52.212;-1.010;2022-07-09T00:35:23;102198.66;;;16.73;64.71
62946;BME280;52164;52.212;-1.010;2022-07-09T00:37:49;102198.83;;;16.71;64.60
62946;BME280;52164;52.212;-1.010;2022-07-09T00:40:14;102196.49;;;16.70;64.62
62946;BME280;52164;52.212;-1.010;2022-07-09T00:42:40;102194.69;;;16.69;64.90
62946;BME280;52164;52.212;-1.010;2022-07-09T00:45:06;102201.54;;;16.67;65.10
62946;BME280;52164;52.212;-1.010;2022-07-09T00:47:32;102203.52;;;16.66;65.23
62946;BME280;52164;52.212;-1.010;2022-07-09T00:49:57;102203.52;;;16.64;65.26
62946;BME280;52164;52.212;-1.010;2022-07-09T00:52:23;102209.45;;;16.62;65.58
62946;BME280;52164;52.212;-1.010;2022-07-09T00:54:48;102208.00;;;16.59;65.47
62946;BME280;52164;52.212;-1.010;2022-07-09T00:57:15;102205.30;;;16.57;65.69
62946;BME280;52164;52.212;-1.010;2022-07-09T00:59:41;102203.13;;;16.55;65.85
62946;BME280;52164;52.212;-1.010;2022-07-09T01:02:08;102204.77;;;16.54;65.66
62946;BME280;52164;52.212;-1.010;2022-07-09T01:04:35;102199.89;;;16.53;65.58
62946;BME280;52164;52.212;-1.010;2022-07-09T01:07:02;102195.91;;;16.49;65.96
62946;BME280;52164;52.212;-1.010;2022-07-09T01:09:28;102191.40;;;16.46;66.22
62946;BME280;52164;52.212;-1.010;2022-07-09T01:11:55;102194.09;;;16.44;66.11
62946;BME280;52164;52.212;-1.010;2022-07-09T01:14:21;102196.79;;;16.41;66.33
62946;BME280;52164;52.212;-1.010;2022-07-09T01:16:47;102200.02;;;16.40;66.53
62946;BME280;52164;52.212;-1.010;2022-07-09T01:19:21;102199.48;;;16.40;66.86
62946;BME280;52164;52.212;-1.010;2022-07-09T01:21:47;102194.80;;;16.39;66.97
62946;BME280;52164;52.212;-1.010;2022-07-09T01:24:12;102191.92;;;16.38;66.89
62946;BME280;52164;52.212;-1.010;2022-07-09T01:26:37;102194.80;;;16.37;66.88
62946;BME280;52164;52.212;-1.010;2022-07-09T01:29:03;102188.31;;;16.36;66.82
62946;BME280;52164;52.212;-1.010;2022-07-09T01:31:29;102189.36;;;16.34;66.68
62946;BME280;52164;52.212;-1.010;2022-07-09T01:33:54;102186.13;;;16.30;66.90
62946;BME280;52164;52.212;-1.010;2022-07-09T01:36:19;102186.65;;;16.25;66.87
62946;BME280;52164;52.212;-1.010;2022-07-09T01:38:45;102181.94;;;16.19;66.96
62946;BME280;52164;52.212;-1.010;2022-07-09T01:41:10;102182.84;;;16.16;67.03
62946;BME280;52164;52.212;-1.010;2022-07-09T01:43:36;102182.30;;;16.12;67.19
62946;BME280;52164;52.212;-1.010;2022-07-09T01:46:01;102179.92;;;16.09;67.32
62946;BME280;52164;52.212;-1.010;2022-07-09T01:48:28;102177.22;;;16.06;67.45
62946;BME280;52164;52.212;-1.010;2022-07-09T01:50:54;102176.85;;;16.05;67.60
62946;BME280;52164;52.212;-1.010;2022-07-09T01:53:20;102180.27;;;16.02;67.86
62946;BME280;52164;52.212;-1.010;2022-07-09T01:55:46;102175.23;;;16.02;67.95
62946;BME280;52164;52.212;-1.010;2022-07-09T01:58:11;102176.84;;;16.02;68.06
62946;BME280;52164;52.212;-1.010;2022-07-09T02:00:37;102174.13;;;16.02;68.27
62946;BME280;52164;52.212;-1.010;2022-07-09T02:03:02;102176.66;;;16.01;68.18
62946;BME280;52164;52.212;-1.010;2022-07-09T02:05:28;102176.84;;;16.00;68.25
62946;BME280;52164;52.212;-1.010;2022-07-09T02:07:54;102170.37;;;16.01;68.11
62946;BME280;52164;52.212;-1.010;2022-07-09T02:10:20;102175.58;;;16.01;68.19
62946;BME280;52164;52.212;-1.010;2022-07-09T02:12:45;102172.34;;;15.98;68.14
62946;BME280;52164;52.212;-1.010;2022-07-09T02:15:11;102172.32;;;15.95;68.39
62946;BME280;52164;52.212;-1.010;2022-07-09T02:17:38;102171.93;;;15.91;68.38
62946;BME280;52164;52.212;-1.010;2022-07-09T02:20:04;102169.21;;;15.85;68.47
62946;BME280;52164;52.212;-1.010;2022-07-09T02:22:30;102168.27;;;15.79;68.51
62946;BME280;52164;52.212;-1.010;2022-07-09T02:24:56;102166.08;;;15.76;68.68
62946;BME280;52164;52.212;-1.010;2022-07-09T02:27:21;102163.73;;;15.73;69.02
62946;BME280;52164;52.212;-1.010;2022-07-09T02:29:47;102161.36;;;15.69;69.03
62946;BME280;52164;52.212;-1.010;2022-07-09T02:32:13;102165.86;;;15.68;69.23
62946;BME280;52164;52.212;-1.010;2022-07-09T02:34:39;102159.02;;;15.70;69.21
62946;BME280;52164;52.212;-1.010;2022-07-09T02:37:05;102153.83;;;15.73;69.26
62946;BME280;52164;52.212;-1.010;2022-07-09T02:39:31;102151.30;;;15.76;69.17
62946;BME280;52164;52.212;-1.010;2022-07-09T02:41:56;102145.71;;;15.75;69.23
62946;BME280;52164;52.212;-1.010;2022-07-09T02:44:22;102144.81;;;15.75;69.36
62946;BME280;52164;52.212;-1.010;2022-07-09T02:46:48;102144.46;;;15.75;69.48
62946;BME280;52164;52.212;-1.010;2022-07-09T02:49:13;102141.05;;;15.73;69.61
62946;BME280;52164;52.212;-1.010;2022-07-09T02:51:39;102147.86;;;15.69;69.66
62946;BME280;52164;52.212;-1.010;2022-07-09T02:54:04;102146.94;;;15.66;69.77
62946;BME280;52164;52.212;-1.010;2022-07-09T02:56:30;102147.46;;;15.64;70.00
62946;BME280;52164;52.212;-1.010;2022-07-09T02:58:56;102149.27;;;15.63;70.20
62946;BME280;52164;52.212;-1.010;2022-07-09T03:01:21;102149.45;;;15.64;70.32
62946;BME280;52164;52.212;-1.010;2022-07-09T03:03:47;102156.29;;;15.64;70.60
62946;BME280;52164;52.212;-1.010;2022-07-09T03:06:12;102159.52;;;15.64;70.67
62946;BME280;52164;52.212;-1.010;2022-07-09T03:08:39;102156.11;;;15.64;70.49
62946;BME280;52164;52.212;-1.010;2022-07-09T03:11:05;102151.99;;;15.67;70.65
62946;BME280;52164;52.212;-1.010;2022-07-09T03:13:33;102152.54;;;15.70;70.48
62946;BME280;52164;52.212;-1.010;2022-07-09T03:15:59;102155.45;;;15.72;70.50
62946;BME280;52164;52.212;-1.010;2022-07-09T03:18:24;102157.96;;;15.73;70.54
62946;BME280;52164;52.212;-1.010;2022-07-09T03:20:50;102157.98;;;15.76;70.43
62946;BME280;52164;52.212;-1.010;2022-07-09T03:23:16;102157.64;;;15.77;70.51
62946;BME280;52164;52.212;-1.010;2022-07-09T03:25:42;102152.95;;;15.77;70.30
62946;BME280;52164;52.212;-1.010;2022-07-09T03:28:09;102156.54;;;15.76;70.27
62946;BME280;52164;52.212;-1.010;2022-07-09T03:30:34;102156.16;;;15.74;70.43
62946;BME280;52164;52.212;-1.010;2022-07-09T03:33:00;102159.38;;;15.69;70.28
62946;BME280;52164;52.212;-1.010;2022-07-09T03:35:26;102159.89;;;15.65;70.11
62946;BME280;52164;52.212;-1.010;2022-07-09T03:37:52;102159.70;;;15.60;70.08
62946;BME280;52164;52.212;-1.010;2022-07-09T03:40:17;102158.94;;;15.55;70.07
62946;BME280;52164;52.212;-1.010;2022-07-09T03:42:43;102155.67;;;15.50;70.06
62946;BME280;52164;52.212;-1.010;2022-07-09T03:45:09;102155.30;;;15.45;70.29
62946;BME280;52164;52.212;-1.010;2022-07-09T03:47:35;102159.23;;;15.42;70.27
62946;BME280;52164;52.212;-1.010;2022-07-09T03:50:00;102160.28;;;15.39;70.14
62946;BME280;52164;52.212;-1.010;2022-07-09T03:52:26;102162.42;;;15.35;70.19
62946;BME280;52164;52.212;-1.010;2022-07-09T03:54:52;102159.16;;;15.30;70.46
62946;BME280;52164;52.212;-1.010;2022-07-09T03:57:17;102163.09;;;15.28;70.58
62946;BME280;52164;52.212;-1.010;2022-07-09T03:59:43;102162.73;;;15.28;70.60
62946;BME280;52164;52.212;-1.010;2022-07-09T04:02:08;102160.41;;;15.30;70.75
62946;BME280;52164;52.212;-1.010;2022-07-09T04:04:34;102159.70;;;15.31;70.80
62946;BME280;52164;52.212;-1.010;2022-07-09T04:06:59;102163.30;;;15.31;70.87
62946;BME280;52164;52.212;-1.010;2022-07-09T04:09:25;102163.28;;;15.29;70.97
62946;BME280;52164;52.212;-1.010;2022-07-09T04:11:50;102163.81;;;15.27;70.95
62946;BME280;52164;52.212;-1.010;2022-07-09T04:14:16;102161.09;;;15.25;70.87
62946;BME280;52164;52.212;-1.010;2022-07-09T04:16:45;102160.54;;;15.23;70.86
62946;BME280;52164;52.212;-1.010;2022-07-09T04:19:11;102163.58;;;15.21;70.93
62946;BME280;52164;52.212;-1.010;2022-07-09T04:21:37;102156.36;;;15.18;70.94
62946;BME280;52164;52.212;-1.010;2022-07-09T04:24:02;102162.47;;;15.16;71.01
62946;BME280;52164;52.212;-1.010;2022-07-09T04:26:28;102165.88;;;15.13;71.06
62946;BME280;52164;52.212;-1.010;2022-07-09T04:28:53;102166.74;;;15.11;71.11
62946;BME280;52164;52.212;-1.010;2022-07-09T04:31:19;102167.63;;;15.11;71.09
62946;BME280;52164;52.212;-1.010;2022-07-09T04:33:46;102163.31;;;15.11;71.18
62946;BME280;52164;52.212;-1.010;2022-07-09T04:36:12;102162.07;;;15.10;71.14
62946;BME280;52164;52.212;-1.010;2022-07-09T04:38:37;102168.89;;;15.10;71.14
62946;BME280;52164;52.212;-1.010;2022-07-09T04:41:04;102172.17;;;15.13;71.23
62946;BME280;52164;52.212;-1.010;2022-07-09T04:43:30;102174.86;;;15.15;71.08
62946;BME280;52164;52.212;-1.010;2022-07-09T04:45:56;102176.86;;;15.16;70.90
62946;BME280;52164;52.212;-1.010;2022-07-09T04:48:22;102173.43;;;15.15;71.12
62946;BME280;52164;52.212;-1.010;2022-07-09T04:50:47;102173.98;;;15.15;71.07
62946;BME280;52164;52.212;-1.010;2022-07-09T04:53:13;102173.44;;;15.16;71.09
62946;BME280;52164;52.212;-1.010;2022-07-09T04:55:39;102173.46;;;15.19;71.28
62946;BME280;52164;52.212;-1.010;2022-07-09T04:58:04;102176.89;;;15.21;71.35
62946;BME280;52164;52.212;-1.010;2022-07-09T05:00:30;102180.67;;;15.22;71.34
62946;BME280;52164;52.212;-1.010;2022-07-09T05:02:56;102178.16;;;15.23;71.63
62946;BME280;52164;52.212;-1.010;2022-07-09T05:05:21;102180.68;;;15.24;71.47
62946;BME280;52164;52.212;-1.010;2022-07-09T05:07:48;102180.16;;;15.26;71.38
62946;BME280;52164;52.212;-1.010;2022-07-09T05:10:14;102179.27;;;15.27;71.36
62946;BME280;52164;52.212;-1.010;2022-07-09T05:12:40;102184.33;;;15.29;71.48
62946;BME280;52164;52.212;-1.010;2022-07-09T05:15:06;102183.43;;;15.29;71.50
62946;BME280;52164;52.212;-1.010;2022-07-09T05:17:34;102185.61;;;15.34;71.63
62946;BME280;52164;52.212;-1.010;2022-07-09T05:20:01;102181.15;;;15.40;71.57
62946;BME280;52164;52.212;-1.010;2022-07-09T05:22:28;102177.96;;;15.47;71.55
62946;BME280;52164;52.212;-1.010;2022-07-09T05:24:54;102174.06;;;15.56;71.46
62946;BME280;52164;52.212;-1.010;2022-07-09T05:27:19;102172.84;;;15.63;71.52
62946;BME280;52164;52.212;-1.010;2022-07-09T05:29:45;102173.59;;;15.67;71.36
62946;BME280;52164;52.212;-1.010;2022-07-09T05:32:10;102179.01;;;15.71;71.32
62946;BME280;52164;52.212;-1.010;2022-07-09T05:34:36;102181.91;;;15.74;71.19
62946;BME280;52164;52.212;-1.010;2022-07-09T05:37:01;102184.24;;;15.76;71.20
62946;BME280;52164;52.212;-1.010;2022-07-09T05:39:27;102182.29;;;15.77;71.28
62946;BME280;52164;52.212;-1.010;2022-07-09T05:41:52;102182.86;;;15.79;71.09
62946;BME280;52164;52.212;-1.010;2022-07-09T05:44:18;102185.95;;;15.81;71.39
62946;BME280;52164;52.212;-1.010;2022-07-09T05:46:43;102184.69;;;15.83;71.31
62946;BME280;52164;52.212;-1.010;2022-07-09T05:49:09;102182.01;;;15.86;71.56
62946;BME280;52164;52.212;-1.010;2022-07-09T05:51:34;102180.56;;;15.88;71.82
62946;BME280;52164;52.212;-1.010;2022-07-09T05:54:00;102174.29;;;15.93;72.02
62946;BME280;52164;52.212;-1.010;2022-07-09T05:56:26;102172.88;;;15.98;72.14
62946;BME280;52164;52.212;-1.010;2022-07-09T05:58:51;102174.52;;;16.05;72.28
62946;BME280;52164;52.212;-1.010;2022-07-09T06:01:17;102175.27;;;16.12;72.25
62946;BME280;52164;52.212;-1.010;2022-07-09T06:03:43;102174.58;;;16.22;72.52
62946;BME280;52164;52.212;-1.010;2022-07-09T06:06:09;102181.08;;;16.29;72.18
62946;BME280;52164;52.212;-1.010;2022-07-09T06:08:35;102177.14;;;16.40;72.30
62946;BME280;52164;52.212;-1.010;2022-07-09T06:11:01;102175.02;;;16.50;72.02
62946;BME280;52164;52.212;-1.010;2022-07-09T06:13:27;102175.02;;;16.55;72.10
62946;BME280;52164;52.212;-1.010;2022-07-09T06:15:52;102179.70;;;16.60;72.08
62946;BME280;52164;52.212;-1.010;2022-07-09T06:18:18;102176.48;;;16.66;71.98
62946;BME280;52164;52.212;-1.010;2022-07-09T06:20:45;102183.51;;;16.70;71.93
62946;BME280;52164;52.212;-1.010;2022-07-09T06:23:11;102181.34;;;16.78;71.69
62946;BME280;52164;52.212;-1.010;2022-07-09T06:25:38;102182.81;;;16.85;71.62
62946;BME280;52164;52.212;-1.010;2022-07-09T06:28:04;102185.73;;;16.92;71.52
62946;BME280;52164;52.212;-1.010;2022-07-09T06:30:29;102184.64;;;16.99;71.45
62946;BME280;52164;52.212;-1.010;2022-07-09T06:32:56;102187.71;;;17.05;71.26
62946;BME280;52164;52.212;-1.010;2022-07-09T06:35:21;102183.20;;;17.11;71.22
62946;BME280;52164;52.212;-1.010;2022-07-09T06:37:47;102177.96;;;17.19;71.16
62946;BME280;52164;52.212;-1.010;2022-07-09T06:40:12;102175.59;;;17.29;71.18
62946;BME280;52164;52.212;-1.010;2022-07-09T06:42:38;102174.15;;;17.38;71.17
62946;BME280;52164;52.212;-1.010;2022-07-09T06:45:04;102180.98;;;17.45;70.89
62946;BME280;52164;52.212;-1.010;2022-07-09T06:47:29;102180.25;;;17.54;70.84
62946;BME280;52164;52.212;-1.010;2022-07-09T06:49:55;102178.05;;;17.65;70.69
62946;BME280;52164;52.212;-1.010;2022-07-09T06:52:20;102181.09;;;17.78;70.45
62946;BME280;52164;52.212;-1.010;2022-07-09T06:54:46;102180.88;;;17.91;70.17
62946;BME280;52164;52.212;-1.010;2022-07-09T06:57:11;102182.13;;;17.97;69.91
62946;BME280;52164;52.212;-1.010;2022-07-09T06:59:39;102181.92;;;18.03;69.64
62946;BME280;52164;52.212;-1.010;2022-07-09T07:02:05;102179.58;;;18.06;69.59
62946;BME280;52164;52.212;-1.010;2022-07-09T07:04:30;102185.14;;;18.10;69.44
62946;BME280;52164;52.212;-1.010;2022-07-09T07:06:56;102186.92;;;18.16;69.22
62946;BME280;52164;52.212;-1.010;2022-07-09T07:09:21;102183.12;;;18.20;69.16
62946;BME280;52164;52.212;-1.010;2022-07-09T07:11:48;102183.08;;;18.25;69.10
62946;BME280;52164;52.212;-1.010;2022-07-09T07:14:14;102185.59;;;18.29;68.95
62946;BME280;52164;52.212;-1.010;2022-07-09T07:16:41;102188.83;;;18.32;68.81
62946;BME280;52164;52.212;-1.010;2022-07-09T07:19:07;102191.70;;;18.35;68.67
62946;BME280;52164;52.212;-1.010;2022-07-09T07:21:32;102192.39;;;18.40;68.53
62946;BME280;52164;52.212;-1.010;2022-07-09T07:23:58;102190.40;;;18.43;68.11
62946;BME280;52164;52.212;-1.010;2022-07-09T07:26:23;102185.15;;;18.42;68.07
62946;BME280;52164;52.212;-1.010;2022-07-09T07:28:49;102186.96;;;18.42;68.15
62946;BME280;52164;52.212;-1.010;2022-07-09T07:31:15;102188.73;;;18.48;68.13
62946;BME280;52164;52.212;-1.010;2022-07-09T07:33:41;102188.32;;;18.57;68.09
62946;BME280;52164;52.212;-1.010;2022-07-09T07:36:09;102189.86;;;18.70;67.86
62946;BME280;52164;52.212;-1.010;2022-07-09T07:38:35;102190.30;;;18.84;67.56
62946;BME280;52164;52.212;-1.010;2022-07-09T07:41:01;102196.55;;;18.99;67.42
62946;BME280;52164;52.212;-1.010;2022-07-09T07:43:26;102190.46;;;19.10;66.89
62946;BME280;52164;52.212;-1.010;2022-07-09T07:45:52;102189.85;;;19.20;66.79
62946;BME280;52164;52.212;-1.010;2022-07-09T07:48:18;102190.36;;;19.23;66.69
62946;BME280;52164;52.212;-1.010;2022-07-09T07:50:43;102196.67;;;19.25;66.36
62946;BME280;52164;52.212;-1.010;2022-07-09T07:53:09;102194.68;;;19.26;66.29
62946;BME280;52164;52.212;-1.010;2022-07-09T07:55:35;102198.17;;;19.21;66.02
62946;BME280;52164;52.212;-1.010;2022-07-09T07:58:01;102200.94;;;19.15;65.71
62946;BME280;52164;52.212;-1.010;2022-07-09T08:00:26;102198.42;;;19.14;65.29
62946;BME280;52164;52.212;-1.010;2022-07-09T08:02:52;102204.73;;;19.16;64.74
62946;BME280;52164;52.212;-1.010;2022-07-09T08:05:17;102195.98;;;19.22;64.63
62946;BME280;52164;52.212;-1.010;2022-07-09T08:07:43;102195.17;;;19.31;64.15
62946;BME280;52164;52.212;-1.010;2022-07-09T08:10:09;102190.96;;;19.36;63.95
62946;BME280;52164;52.212;-1.010;2022-07-09T08:12:34;102192.69;;;19.45;63.44
62946;BME280;52164;52.212;-1.010;2022-07-09T08:15:00;102188.63;;;19.52;62.74
62946;BME280;52164;52.212;-1.010;2022-07-09T08:17:25;102186.41;;;19.54;62.32
62946;BME280;52164;52.212;-1.010;2022-07-09T08:19:51;102189.86;;;19.55;62.78
62946;BME280;52164;52.212;-1.010;2022-07-09T08:22:17;102186.09;;;19.52;62.94
62946;BME280;52164;52.212;-1.010;2022-07-09T08:24:42;102181.63;;;19.46;62.09
62946;BME280;52164;52.212;-1.010;2022-07-09T08:27:08;102184.38;;;19.44;61.62
62946;BME280;52164;52.212;-1.010;2022-07-09T08:29:33;102180.48;;;19.51;61.17
62946;BME280;52164;52.212;-1.010;2022-07-09T08:31:59;102180.38;;;19.62;60.43
62946;BME280;52164;52.212;-1.010;2022-07-09T08:34:24;102178.67;;;19.68;58.76
62946;BME280;52164;52.212;-1.010;2022-07-09T08:36:50;102176.20;;;19.81;58.37
62946;BME280;52164;52.212;-1.010;2022-07-09T08:39:15;102171.29;;;19.98;57.63
62946;BME280;52164;52.212;-1.010;2022-07-09T08:41:42;102168.48;;;20.19;56.99
62946;BME280;52164;52.212;-1.010;2022-07-09T08:44:10;102165.41;;;20.31;56.69
62946;BME280;52164;52.212;-1.010;2022-07-09T08:46:36;102169.72;;;20.33;56.07
62946;BME280;52164;52.212;-1.010;2022-07-09T08:49:03;102169.86;;;20.24;55.67
62946;BME280;52164;52.212;-1.010;2022-07-09T08:51:29;102169.08;;;20.14;55.75
62946;BME280;52164;52.212;-1.010;2022-07-09T08:53:55;102166.57;;;20.11;55.90
62946;BME280;52164;52.212;-1.010;2022-07-09T08:56:21;102163.02;;;20.20;55.80
62946;BME280;52164;52.212;-1.010;2022-07-09T08:58:47;102161.80;;;20.29;55.70
62946;BME280;52164;52.212;-1.010;2022-07-09T09:01:15;102164.89;;;20.41;55.43
62946;BME280;52164;52.212;-1.010;2022-07-09T09:03:43;102166.02;;;20.63;54.94
62946;BME280;52164;52.212;-1.010;2022-07-09T09:06:10;102155.84;;;20.88;54.89
62946;BME280;52164;52.212;-1.010;2022-07-09T09:11:08;102148.80;;;21.18;54.00
62946;BME280;52164;52.212;-1.010;2022-07-09T09:13:40;102148.95;;;21.09;54.21
62946;BME280;52164;52.212;-1.010;2022-07-09T09:16:08;102147.75;;;20.94;53.98
62946;BME280;52164;52.212;-1.010;2022-07-09T09:18:35;102150.81;;;20.85;54.00
62946;BME280;52164;52.212;-1.010;2022-07-09T09:21:03;102149.71;;;20.86;53.58
62946;BME280;52164;52.212;-1.010;2022-07-09T09:23:38;102150.05;;;20.87;53.05
62946;BME280;52164;52.212;-1.010;2022-07-09T09:26:08;102145.08;;;21.02;53.34
62946;BME280;52164;52.212;-1.010;2022-07-09T09:28:34;102146.36;;;21.21;52.51
62946;BME280;52164;52.212;-1.010;2022-07-09T09:30:59;102147.65;;;21.41;51.54
62946;BME280;52164;52.212;-1.010;2022-07-09T09:33:25;102146.69;;;21.54;50.83
62946;BME280;52164;52.212;-1.010;2022-07-09T09:35:50;102150.25;;;21.66;51.77
62946;BME280;52164;52.212;-1.010;2022-07-09T09:38:22;102152.95;;;21.85;51.23
62946;BME280;52164;52.212;-1.010;2022-07-09T09:40:48;102151.06;;;21.89;50.73
62946;BME280;52164;52.212;-1.010;2022-07-09T09:43:17;102151.46;;;21.78;50.67
62946;BME280;52164;52.212;-1.010;2022-07-09T09:45:44;102155.95;;;21.63;50.87
62946;BME280;52164;52.212;-1.010;2022-07-09T09:48:14;102152.42;;;21.38;50.82
62946;BME280;52164;52.212;-1.010;2022-07-09T09:50:43;102158.25;;;21.36;51.30
62946;BME280;52164;52.212;-1.010;2022-07-09T09:53:13;102164.02;;;21.48;50.74
62946;BME280;52164;52.212;-1.010;2022-07-09T09:55:40;102162.13;;;21.54;50.25
62946;BME280;52164;52.212;-1.010;2022-07-09T09:58:07;102157.68;;;21.58;50.14
62946;BME280;52164;52.212;-1.010;2022-07-09T10:00:35;102152.95;;;21.68;50.60
62946;BME280;52164;52.212;-1.010;2022-07-09T10:03:01;102158.95;;;21.76;50.14
62946;BME280;52164;52.212;-1.010;2022-07-09T10:05:27;102161.23;;;21.81;49.79
62946;BME280;52164;52.212;-1.010;2022-07-09T10:07:53;102161.40;;;21.90;49.76
62946;BME280;52164;52.212;-1.010;2022-07-09T10:10:20;102165.20;;;21.99;49.10
62946;BME280;52164;52.212;-1.010;2022-07-09T10:12:46;102158.67;;;22.07;48.82
62946;BME280;52164;52.212;-1.010;2022-07-09T10:15:28;102150.30;;;22.07;48.80
62946;BME280;52164;52.212;-1.010;2022-07-09T10:17:53;102164.73;;;22.21;48.20
62946;BME280;52164;52.212;-1.010;2022-07-09T10:20:34;102161.02;;;22.33;48.26
62946;BME280;52164;52.212;-1.010;2022-07-09T10:23:02;102160.16;;;22.47;47.90
62946;BME280;52164;52.212;-1.010;2022-07-09T10:25:30;102159.88;;;22.67;47.87
62946;BME280;52164;52.212;-1.010;2022-07-09T10:27:56;102161.02;;;22.80;47.64
62946;BME280;52164;52.212;-1.010;2022-07-09T10:33:05;102159.35;;;22.35;48.03
62946;BME280;52164;52.212;-1.010;2022-07-09T10:35:31;102158.98;;;22.36;48.35
62946;BME280;52164;52.212;-1.010;2022-07-09T10:37:56;102158.36;;;22.47;48.00
62946;BME280;52164;52.212;-1.010;2022-07-09T10:40:23;102157.09;;;22.61;47.98
62946;BME280;52164;52.212;-1.010;2022-07-09T10:43:04;102156.14;;;22.71;47.32
62946;BME280;52164;52.212;-1.010;2022-07-09T10:45:36;102158.23;;;22.75;46.70
62946;BME280;52164;52.212;-1.010;2022-07-09T10:48:05;102155.05;;;22.78;46.28
62946;BME280;52164;52.212;-1.010;2022-07-09T10:50:32;102151.92;;;22.79;46.15
62946;BME280;52164;52.212;-1.010;2022-07-09T10:53:00;102151.30;;;22.82;45.61
62946;BME280;52164;52.212;-1.010;2022-07-09T10:55:27;102146.43;;;22.88;45.83
62946;BME280;52164;52.212;-1.010;2022-07-09T10:57:53;102148.36;;;22.98;45.70
62946;BME280;52164;52.212;-1.010;2022-07-09T11:00:22;102148.10;;;23.01;45.01
62946;BME280;52164;52.212;-1.010;2022-07-09T11:03:05;102158.65;;;23.00;45.16
62946;BME280;52164;52.212;-1.010;2022-07-09T11:05:34;102160.41;;;23.12;44.83
62946;BME280;52164;52.212;-1.010;2022-07-09T11:08:01;102156.32;;;23.22;44.62
62946;BME280;52164;52.212;-1.010;2022-07-09T11:10:28;102149.02;;;23.36;44.30
62946;BME280;52164;52.212;-1.010;2022-07-09T11:12:55;102149.40;;;23.49;44.51
62946;BME280;52164;52.212;-1.010;2022-07-09T11:15:24;102141.29;;;23.58;44.32
62946;BME280;52164;52.212;-1.010;2022-07-09T11:20:21;102146.98;;;23.69;42.85
62946;BME280;52164;52.212;-1.010;2022-07-09T11:22:48;102140.79;;;23.76;42.05
62946;BME280;52164;52.212;-1.010;2022-07-09T11:25:15;102135.52;;;23.81;41.90
62946;BME280;52164;52.212;-1.010;2022-07-09T11:27:41;102132.09;;;23.87;41.61
62946;BME280;52164;52.212;-1.010;2022-07-09T11:30:12;102140.52;;;23.92;41.35
62946;BME280;52164;52.212;-1.010;2022-07-09T11:32:38;102140.46;;;23.87;41.26
62946;BME280;52164;52.212;-1.010;2022-07-09T11:35:04;102141.48;;;23.77;41.38
62946;BME280;52164;52.212;-1.010;2022-07-09T11:37:30;102139.38;;;23.68;41.88
62946;BME280;52164;52.212;-1.010;2022-07-09T11:39:55;102136.32;;;23.72;41.89
62946;BME280;52164;52.212;-1.010;2022-07-09T11:42:21;102134.11;;;23.86;42.32
62946;BME280;52164;52.212;-1.010;2022-07-09T11:44:56;102134.14;;;24.10;42.11
62946;BME280;52164;52.212;-1.010;2022-07-09T11:47:38;102138.98;;;24.36;41.74
62946;BME280;52164;52.212;-1.010;2022-07-09T11:50:13;102132.05;;;24.53;41.59
62946;BME280;52164;52.212;-1.010;2022-07-09T11:52:48;102132.56;;;24.71;40.94
62946;BME280;52164;52.212;-1.010;2022-07-09T11:55:17;102138.15;;;24.84;39.87
62946;BME280;52164;52.212;-1.010;2022-07-09T11:57:52;102137.06;;;24.89;39.69
62946;BME280;52164;52.212;-1.010;2022-07-09T12:00:24;102124.73;;;25.03;38.35
62946;BME280;52164;52.212;-1.010;2022-07-09T12:02:50;102117.45;;;25.17;38.00
62946;BME280;52164;52.212;-1.010;2022-07-09T12:07:51;102115.52;;;25.41;37.81
62946;BME280;52164;52.212;-1.010;2022-07-09T12:10:25;102113.73;;;25.50;37.14
62946;BME280;52164;52.212;-1.010;2022-07-09T12:12:51;102109.67;;;25.61;36.86
62946;BME280;52164;52.212;-1.010;2022-07-09T12:15:17;102104.89;;;25.72;36.84
62946;BME280;52164;52.212;-1.010;2022-07-09T12:17:42;102106.34;;;25.86;36.99
62946;BME280;52164;52.212;-1.010;2022-07-09T12:20:08;102103.61;;;26.00;36.96
62946;BME280;52164;52.212;-1.010;2022-07-09T12:22:35;102099.27;;;26.13;36.90
62946;BME280;52164;52.212;-1.010;2022-07-09T12:25:00;102097.64;;;26.31;37.06
62946;BME280;52164;52.212;-1.010;2022-07-09T12:27:26;102100.19;;;26.40;36.71
62946;BME280;52164;52.212;-1.010;2022-07-09T12:29:52;102108.33;;;26.38;36.53
62946;BME280;52164;52.212;-1.010;2022-07-09T12:32:17;102101.34;;;26.34;36.73
62946;BME280;52164;52.212;-1.010;2022-07-09T12:34:43;102096.69;;;26.41;36.56
62946;BME280;52164;52.212;-1.010;2022-07-09T12:37:09;102095.27;;;26.48;35.72
62946;BME280;52164;52.212;-1.010;2022-07-09T12:39:35;102100.98;;;26.56;35.89
62946;BME280;52164;52.212;-1.010;2022-07-09T12:42:01;102098.94;;;26.66;35.58
62946;BME280;52164;52.212;-1.010;2022-07-09T12:44:26;102102.84;;;26.65;35.19
62946;BME280;52164;52.212;-1.010;2022-07-09T12:46:52;102098.91;;;26.58;35.47